Time;durP1;ratioP1;P1;durP2;ratioP2;P2;SDS_P1;SDS_P2;PMS_P1;PMS_P2;Temp;Humidity;BMP_temperature;BMP_pressure;BME280_temperature;BME280_humidity;BME280_pressure;Samples;Min_cycle;Max_cycle;Signal;HPM_P1;HPM_P2
2021/12/22 00:01:49;;;;;;;;;50.75;43.50;;;;;-1.94;84.30;102104.31;6241911;22;45393;-76
2021/12/22 00:04:14;;;;;;;;;51.25;42.50;;;;;-2.19;84.62;102058.91;6241645;22;45340;-75
2021/12/22 00:06:40;;;;;;;;;48.00;41.50;;;;;-1.73;84.58;102140.09;6241873;22;45196;-76
2021/12/22 00:09:06;;;;;;;;;47.75;40.75;;;;;-1.73;84.38;102137.53;6241805;22;45181;-75
2021/12/22 00:11:32;;;;;;;;;43.50;42.50;;;;;-1.70;84.76;102138.50;6214269;22;45181;-75
2021/12/22 00:13:57;;;;;;;;;52.50;45.00;;;;;-1.80;84.74;102116.72;6213884;22;48162;-76
2021/12/22 00:16:23;;;;;;;;;51.00;43.75;;;;;-1.75;84.45;102118.59;6239923;22;45713;-75
2021/12/22 00:18:49;;;;;;;;;37.50;37.25;;;;;-1.72;84.39;102129.00;6241486;22;45292;-75
2021/12/22 00:21:14;;;;;;;;;46.25;40.00;;;;;-1.74;84.89;102135.81;6241953;22;45262;-75
2021/12/22 00:23:40;;;;;;;;;27.50;20.75;;;;;-2.14;84.55;102061.66;6214271;22;47275;-75
2021/12/22 00:26:06;;;;;;;;;49.00;42.00;;;;;-1.75;84.81;102131.47;6241305;22;45356;-75
2021/12/22 00:28:34;;;;;;;;;58.50;44.25;;;;;-1.93;84.97;102097.47;6241328;22;45225;-76
2021/12/22 00:31:00;;;;;;;;;46.00;39.25;;;;;-2.17;84.70;102056.41;6241117;22;45355;-77
2021/12/22 00:33:28;;;;;;;;;45.50;39.25;;;;;-1.77;84.82;102129.69;6242100;22;45968;-74
2021/12/22 00:35:54;;;;;;;;;36.50;35.00;;;;;-1.94;85.15;102104.31;6248154;22;45254;-75
2021/12/22 00:38:21;;;;;;;;;55.75;45.50;;;;;-1.79;84.92;102129.63;6257268;22;44753;-75
2021/12/22 00:40:48;;;;;;;;;44.00;41.75;;;;;-2.99;84.72;101921.88;6248926;22;45236;-77
2021/12/22 00:43:15;;;;;;;;;39.00;36.25;;;;;-1.80;84.84;102119.28;6243625;22;45853;-75
2021/12/22 00:45:41;;;;;;;;;53.00;41.50;;;;;-1.82;84.87;102121.81;6215314;22;45297;-75
2021/12/22 00:48:08;;;;;;;;;47.00;43.75;;;;;-1.82;85.15;102118.38;6242130;22;45319;-75
2021/12/22 00:50:36;;;;;;;;;42.25;40.25;;;;;-1.83;84.83;102112.38;6243326;22;45292;-75
2021/12/22 00:53:01;;;;;;;;;44.00;39.75;;;;;-1.84;84.76;102108.03;6242839;22;45272;-76
2021/12/22 00:55:27;;;;;;;;;46.75;40.25;;;;;-1.93;85.41;102097.47;6215156;22;45598;-75
2021/12/22 00:57:52;;;;;;;;;44.75;39.50;;;;;-1.96;84.56;102095.66;6240654;22;45388;-76
2021/12/22 01:00:20;;;;;;;;;46.75;42.00;;;;;-1.86;85.27;102108.84;6215120;22;45452;-75
2021/12/22 01:02:46;;;;;;;;;46.75;42.00;;;;;-1.85;85.44;102113.13;6243285;22;45193;-75
2021/12/22 01:05:15;;;;;;;;;33.75;33.75;;;;;-1.86;84.99;102113.97;6243137;22;45185;-75
2021/12/22 01:07:42;;;;;;;;;51.25;44.00;;;;;-1.88;85.41;102115.59;6244303;22;45292;-76
2021/12/22 01:10:09;;;;;;;;;40.50;37.00;;;;;-1.89;84.90;102107.00;6193641;22;45182;-75
2021/12/22 01:12:36;;;;;;;;;46.50;42.25;;;;;-1.90;85.03;102107.84;6252571;22;45518;-75
2021/12/22 01:15:02;;;;;;;;;37.75;36.50;;;;;-1.97;84.91;102098.19;6223254;22;45233;-75
2021/12/22 01:17:35;;;;;;;;;51.25;41.50;;;;;-1.92;85.04;102110.38;6246569;22;44713;-76
2021/12/22 01:20:08;;;;;;;;;37.75;32.00;;;;;-2.04;84.84;102091.97;6243520;22;45260;-77
2021/12/22 01:22:47;;;;;;;;;38.75;33.50;;;;;-1.93;85.11;102107.75;6215307;22;45335;-76
2021/12/22 01:25:16;;;;;;;;;42.50;35.25;;;;;-1.95;85.16;102104.25;6242538;22;45439;-77
2021/12/22 01:27:43;;;;;;;;;44.00;42.00;;;;;-1.95;85.23;102099.13;6244574;22;45368;-76
2021/12/22 01:30:11;;;;;;;;;54.25;44.50;;;;;-1.96;85.59;102097.34;6244569;22;45261;-77
2021/12/22 01:32:37;;;;;;;;;48.25;34.75;;;;;-1.98;85.51;102099.00;6215459;22;45211;-76
2021/12/22 01:35:06;;;;;;;;;41.50;38.75;;;;;-1.98;85.50;102096.44;6242628;22;45391;-77
2021/12/22 01:37:32;;;;;;;;;42.25;39.75;;;;;-2.00;85.69;102096.38;6215158;22;45739;-75
2021/12/22 01:40:00;;;;;;;;;52.25;42.00;;;;;-2.01;85.60;102096.34;6240968;22;45446;-75
2021/12/22 01:42:25;;;;;;;;;41.25;36.00;;;;;-2.17;85.67;102082.13;6242160;22;46274;-76
2021/12/22 01:50:31;;;;;;;;;40.00;37.75;;;;;-2.04;85.44;102103.94;6242155;22;45355;-76
2021/12/22 01:52:59;;;;;;;;;50.50;42.00;;;;;-2.46;85.13;102046.06;6242465;22;46114;-76
2021/12/22 01:55:33;;;;;;;;;41.50;37.75;;;;;-2.70;85.58;102011.03;6214935;22;45923;-76
2021/12/22 01:58:01;;;;;;;;;41.25;40.50;;;;;-2.30;85.35;102073.13;6216467;22;45423;-76
2021/12/22 02:00:28;;;;;;;;;44.50;35.75;;;;;-2.32;85.74;102074.78;6242751;22;45370;-77
2021/12/22 02:02:55;;;;;;;;;54.00;43.75;;;;;-2.09;85.52;102116.69;6242766;22;45246;-76
2021/12/22 02:05:20;;;;;;;;;45.75;43.50;;;;;-2.09;85.69;102119.25;6240084;22;45712;-76
2021/12/22 02:07:49;;;;;;;;;51.75;44.25;;;;;-2.09;85.50;102119.25;6216062;22;45352;-76
2021/12/22 02:10:32;;;;;;;;;46.00;40.25;;;;;-2.61;85.51;102037.84;6242285;22;45343;-76
2021/12/22 02:12:59;;;;;;;;;40.50;38.00;;;;;-2.10;85.55;102117.50;6240140;22;47929;-76
2021/12/22 02:15:28;;;;;;;;;39.25;35.00;;;;;-2.12;85.50;102132.00;6242743;22;45448;-75
2021/12/22 02:17:57;;;;;;;;;41.25;40.00;;;;;-2.58;85.72;102056.78;6242832;22;45315;-76
2021/12/22 02:20:22;;;;;;;;;46.00;38.75;;;;;-2.33;85.50;102102.22;6242527;22;45328;-75
2021/12/22 02:22:47;;;;;;;;;41.25;35.75;;;;;-2.13;85.59;102143.13;6241805;22;46214;-75
2021/12/22 02:25:18;;;;;;;;;39.50;36.50;;;;;-2.14;85.48;102139.66;6242885;22;45360;-75
2021/12/22 02:27:52;;;;;;;;;34.75;29.50;;;;;-3.05;85.56;101991.88;6243378;22;45161;-76
2021/12/22 02:30:25;;;;;;;;;50.50;42.50;;;;;-2.15;85.94;102149.88;6242397;22;45358;-76
2021/12/22 02:35:28;;;;;;;;;41.25;36.25;;;;;-2.15;85.51;102155.03;6242248;22;45411;-76
2021/12/22 02:37:54;;;;;;;;;45.75;40.75;;;;;-2.17;85.75;102157.59;6242302;22;45260;-75
2021/12/22 02:40:26;;;;;;;;;35.25;31.75;;;;;-2.17;85.29;102164.41;6244186;22;45313;-75
2021/12/22 02:43:04;;;;;;;;;38.50;36.00;;;;;-2.78;85.36;102066.41;6253750;22;46630;-76
2021/12/22 02:45:33;;;;;;;;;37.00;30.00;;;;;-2.55;85.75;102107.44;6246338;22;45411;-76
2021/12/22 02:47:59;;;;;;;;;31.00;31.00;;;;;-2.19;85.44;102160.91;6243240;22;45268;-76
2021/12/22 02:50:25;;;;;;;;;35.25;33.25;;;;;-2.20;85.66;102164.28;6242184;22;45420;-75
2021/12/22 02:55:16;;;;;;;;;37.50;36.75;;;;;-2.22;85.77;102158.22;6237619;22;45256;-76
2021/12/22 02:57:46;;;;;;;;;40.75;35.50;;;;;-2.33;85.55;102139.88;6242230;22;45436;-75
2021/12/22 03:00:48;;;;;;;;;45.00;30.00;;;;;-2.25;85.75;102153.88;6242578;22;45403;-76
2021/12/22 03:06:00;;;;;;;;;38.00;33.75;;;;;-2.27;85.92;102157.19;6242184;22;45246;-75
2021/12/22 03:08:25;;;;;;;;;42.75;39.00;;;;;-2.28;85.25;102148.63;6242546;22;45363;-75
2021/12/22 03:10:53;;;;;;;;;42.25;36.75;;;;;-2.28;85.52;102146.03;6242561;22;45308;-75
2021/12/22 03:13:23;;;;;;;;;43.50;38.00;;;;;-2.28;85.62;102137.47;6242005;22;45990;-76
2021/12/22 03:15:49;;;;;;;;;38.75;31.75;;;;;-2.45;85.63;102106.94;6242806;22;45304;-77
2021/12/22 03:18:14;;;;;;;;;40.75;36.75;;;;;-2.35;85.74;102124.38;6242945;22;45206;-78
2021/12/22 03:20:41;;;;;;;;;45.75;39.25;;;;;-3.04;85.35;102006.44;6242467;22;45174;-78
2021/12/22 03:23:07;;;;;;;;;42.75;37.50;;;;;-2.30;85.64;102133.13;6242905;22;45201;-79
2021/12/22 03:25:32;;;;;;;;;47.25;37.00;;;;;-2.29;85.75;102134.03;6242702;22;45173;-79
2021/12/22 03:28:02;;;;;;;;;39.50;34.50;;;;;-2.30;85.26;102128.00;6243189;22;45443;-79
2021/12/22 03:30:28;;;;;;;;;43.00;34.75;;;;;-2.67;85.57;102059.94;6242860;22;45240;-80
2021/12/22 03:32:54;;;;;;;;;42.25;37.25;;;;;-2.63;85.76;102072.88;6242534;22;45987;-79
2021/12/22 03:35:21;;;;;;;;;46.50;41.25;;;;;-2.29;85.31;102123.75;6243119;22;45316;-78
2021/12/22 03:37:54;;;;;;;;;36.00;32.00;;;;;-2.29;85.65;102118.59;6245225;22;45324;-80
2021/12/22 03:40:21;;;;;;;;;42.25;28.50;;;;;-2.38;85.63;102103.75;6219147;22;45352;-79
2021/12/22 03:42:48;;;;;;;;;39.25;33.75;;;;;-2.54;85.53;102079.22;6246308;22;45554;-79
2021/12/22 03:45:15;;;;;;;;;44.25;35.50;;;;;-2.31;85.80;102115.09;6244844;22;45302;-79
2021/12/22 03:47:41;;;;;;;;;43.25;39.00;;;;;-2.47;85.36;102082.00;6243358;22;45366;-78
2021/12/22 03:50:08;;;;;;;;;31.50;28.25;;;;;-2.33;85.37;102109.03;6214976;22;45311;-79
2021/12/22 03:52:33;;;;;;;;;38.25;33.75;;;;;-2.34;85.08;102108.16;6242528;22;46414;-78
2021/12/22 03:54:59;;;;;;;;;33.75;30.50;;;;;-2.35;85.41;102100.38;6242970;22;45287;-77
2021/12/22 03:57:29;;;;;;;;;38.25;34.25;;;;;-2.46;85.54;102083.75;6242778;22;45263;-77
2021/12/22 03:59:57;;;;;;;;;35.25;33.25;;;;;-2.37;85.35;102086.63;6239997;22;45612;-76
2021/12/22 04:02:23;;;;;;;;;38.50;29.00;;;;;-2.36;85.29;102090.94;6242067;22;45233;-80
2021/12/22 04:04:50;;;;;;;;;33.25;33.25;;;;;-2.73;85.58;102031.47;6242117;22;45428;-79
2021/12/22 04:07:16;;;;;;;;;36.25;29.75;;;;;-2.65;85.24;102048.84;6242453;22;45383;-78
2021/12/22 04:09:42;;;;;;;;;31.75;30.00;;;;;-2.36;84.89;102096.09;6242492;22;45169;-79
2021/12/22 04:12:08;;;;;;;;;44.50;34.00;;;;;-2.36;84.93;102083.25;6242125;22;45943;-79
2021/12/22 04:14:33;;;;;;;;;32.00;32.00;;;;;-2.33;85.13;102078.16;6243132;22;45774;-79
2021/12/22 04:16:59;;;;;;;;;32.25;30.75;;;;;-2.87;84.86;101989.03;6244017;22;45326;-79
2021/12/22 04:19:24;;;;;;;;;28.75;27.75;;;;;-2.32;84.69;102079.94;6243958;22;45338;-78
2021/12/22 04:21:51;;;;;;;;;32.00;30.50;;;;;-2.62;84.65;102028.41;6243955;22;45344;-79
2021/12/22 04:24:19;;;;;;;;;38.00;32.50;;;;;-2.41;84.49;102061.66;6243553;22;45368;-80
2021/12/22 04:26:45;;;;;;;;;35.00;33.00;;;;;-2.56;84.65;102039.75;6244043;22;45261;-78
2021/12/22 04:29:11;;;;;;;;;29.00;26.00;;;;;-2.31;84.59;102081.66;6245203;22;45267;-78
2021/12/22 04:31:37;;;;;;;;;28.50;27.25;;;;;-2.33;84.69;102075.59;6246756;22;45200;-78
2021/12/22 04:34:07;;;;;;;;;34.00;31.25;;;;;-2.34;84.39;102079.00;6246942;22;45131;-79
2021/12/22 04:36:32;;;;;;;;;32.50;32.50;;;;;-2.51;84.61;102051.03;6246305;22;45279;-79
2021/12/22 04:38:59;;;;;;;;;21.50;19.25;;;;;-2.37;84.26;102090.06;6247875;22;45110;-80
2021/12/22 04:41:26;;;;;;;;;33.25;29.50;;;;;-2.55;84.34;102054.34;6246853;22;46688;-79
2021/12/22 04:43:52;;;;;;;;;24.75;24.00;;;;;-2.40;84.43;102078.78;6247099;22;45249;-79
2021/12/22 04:46:19;;;;;;;;;35.75;28.00;;;;;-2.99;84.82;101976.66;6221008;22;45304;-81
2021/12/22 04:48:45;;;;;;;;;27.00;27.00;;;;;-2.59;84.44;102061.91;6230204;22;45205;-80
2021/12/22 04:51:22;;;;;;;;;31.00;28.00;;;;;-2.60;84.44;102057.59;6267241;22;45021;-80
2021/12/22 04:53:53;;;;;;;;;33.50;30.25;;;;;-2.66;84.36;102045.41;6247585;22;45323;-79
2021/12/22 04:56:19;;;;;;;;;30.00;26.75;;;;;-2.79;84.25;102021.00;6244320;22;45297;-79
2021/12/22 04:58:45;;;;;;;;;31.50;31.00;;;;;-2.73;84.45;102038.31;6243595;22;45233;-77
2021/12/22 05:01:10;;;;;;;;;36.25;33.25;;;;;-2.87;84.51;102009.59;6243833;22;45418;-77
2021/12/22 05:03:35;;;;;;;;;31.50;30.50;;;;;-2.51;84.45;102079.31;6243383;22;45346;-79
2021/12/22 05:06:02;;;;;;;;;30.75;26.25;;;;;-2.51;84.41;102079.31;6242582;22;45298;-77
2021/12/22 05:08:29;;;;;;;;;30.25;26.75;;;;;-2.51;84.29;102081.88;6243005;22;45323;-78
2021/12/22 05:10:55;;;;;;;;;39.00;32.00;;;;;-2.49;84.45;102084.50;6215513;22;46383;-77
2021/12/22 05:13:20;;;;;;;;;29.75;27.50;;;;;-2.45;84.70;102082.91;6243035;22;45237;-77
2021/12/22 05:15:46;;;;;;;;;34.25;28.75;;;;;-2.64;84.01;102045.47;6243100;22;45142;-78
2021/12/22 05:18:20;;;;;;;;;35.00;27.00;;;;;-2.39;84.18;102081.41;6243274;22;45325;-77
2021/12/22 05:20:47;;;;;;;;;32.25;27.50;;;;;-2.60;84.44;102039.59;6243161;22;45855;-77
2021/12/22 05:23:12;;;;;;;;;35.25;30.50;;;;;-2.34;84.18;102077.31;6243157;22;44726;-77
2021/12/22 05:25:38;;;;;;;;;35.75;27.00;;;;;-2.33;83.74;102075.59;6241983;22;45753;-77
2021/12/22 05:28:03;;;;;;;;;38.25;32.25;;;;;-2.33;83.72;102075.59;6243093;22;45209;-76
2021/12/22 05:30:29;;;;;;;;;44.25;31.50;;;;;-2.34;83.91;102089.28;6243100;22;46010;-78
2021/12/22 05:32:55;;;;;;;;;36.25;26.50;;;;;-2.41;83.76;102074.50;6244013;22;45835;-77
2021/12/22 05:35:21;;;;;;;;;33.25;28.50;;;;;-2.36;83.55;102084.09;6243436;22;45276;-78
2021/12/22 05:37:47;;;;;;;;;31.00;31.00;;;;;-2.43;83.61;102076.13;6243075;22;45399;-79
2021/12/22 05:40:12;;;;;;;;;30.25;25.00;;;;;-2.38;83.85;102090.91;6243394;22;46108;-77
2021/12/22 05:42:38;;;;;;;;;29.25;24.00;;;;;-2.56;83.80;102062.88;6215042;22;45313;-77
2021/12/22 05:45:04;;;;;;;;;33.00;30.25;;;;;-2.48;83.48;102081.13;6215250;22;45625;-76
2021/12/22 05:47:30;;;;;;;;;35.00;29.75;;;;;-2.44;84.10;102095.81;6243025;22;45320;-76
2021/12/22 05:49:55;;;;;;;;;30.50;29.75;;;;;-2.61;84.25;102073.81;6242563;22;45231;-76
2021/12/22 05:52:21;;;;;;;;;37.00;30.75;;;;;-2.46;83.81;102105.19;6215794;22;45373;-76
2021/12/22 05:54:46;;;;;;;;;35.75;30.75;;;;;-2.47;83.95;102097.41;6242998;22;45209;-76
2021/12/22 05:57:12;;;;;;;;;32.75;31.00;;;;;-2.48;83.79;102101.69;6242604;22;45256;-77
2021/12/22 05:59:37;;;;;;;;;34.50;28.50;;;;;-2.50;84.09;102093.91;6243031;22;45413;-75
2021/12/22 06:02:03;;;;;;;;;36.00;32.50;;;;;-2.52;83.73;102089.56;6243511;22;45364;-76
2021/12/22 06:04:28;;;;;;;;;33.50;31.50;;;;;-2.85;84.10;102030.19;6243042;22;45441;-76
2021/12/22 06:06:54;;;;;;;;;51.00;41.75;;;;;-2.55;84.34;102079.16;6242723;22;45337;-75
2021/12/22 06:09:19;;;;;;;;;40.50;32.75;;;;;-2.80;84.00;102024.38;6243106;22;45243;-77
2021/12/22 06:11:44;;;;;;;;;38.00;32.75;;;;;-2.80;84.05;102016.69;6243280;22;45303;-76
2021/12/22 06:14:10;;;;;;;;;34.25;30.50;;;;;-2.59;84.39;102061.91;6244188;22;45376;-76
2021/12/22 06:16:35;;;;;;;;;35.75;31.25;;;;;-2.60;84.45;102055.00;6251994;22;45349;-76
2021/12/22 06:19:04;;;;;;;;;36.75;34.00;;;;;-2.88;84.19;102013.88;6217769;22;45809;-76
2021/12/22 06:21:31;;;;;;;;;39.25;33.50;;;;;-2.87;84.07;102017.28;6242682;22;45264;-75
2021/12/22 06:23:57;;;;;;;;;42.00;32.50;;;;;-2.73;84.54;102058.88;6242857;22;45212;-77
2021/12/22 06:26:22;;;;;;;;;29.25;29.25;;;;;-2.67;84.71;102071.91;6214945;22;45134;-75
2021/12/22 06:28:50;;;;;;;;;44.75;36.25;;;;;-2.89;84.16;102032.66;6242442;22;45950;-75
2021/12/22 06:31:15;;;;;;;;;41.25;39.25;;;;;-2.81;84.22;102058.59;6242910;22;45390;-77
2021/12/22 06:33:41;;;;;;;;;35.75;30.00;;;;;-2.91;84.49;102044.56;6242773;22;45414;-76
2021/12/22 06:36:06;;;;;;;;;36.50;30.25;;;;;-2.93;84.42;102069.34;6242152;22;45319;-77
2021/12/22 06:38:32;;;;;;;;;36.75;31.75;;;;;-3.07;84.25;102042.31;6242703;22;45409;-77
2021/12/22 06:40:59;;;;;;;;;31.50;31.50;;;;;-3.36;84.31;101998.47;6242808;22;45304;-75
2021/12/22 06:43:24;;;;;;;;;31.50;31.50;;;;;-2.87;84.42;102097.78;6242252;22;45169;-77
2021/12/22 06:45:50;;;;;;;;;39.25;33.00;;;;;-3.14;84.50;102045.47;6242742;22;45268;-75
2021/12/22 06:48:15;;;;;;;;;35.75;33.25;;;;;-2.90;84.31;102087.41;6215925;22;45336;-75
2021/12/22 06:50:40;;;;;;;;;31.00;29.00;;;;;-2.82;84.65;102095.38;6242948;22;45389;-77
2021/12/22 06:53:06;;;;;;;;;31.50;30.25;;;;;-2.98;85.09;102070.00;6243129;22;45256;-76
2021/12/22 06:55:31;;;;;;;;;31.25;31.25;;;;;-2.83;84.78;102088.50;6247277;22;45308;-74
2021/12/22 06:57:58;;;;;;;;;32.50;30.00;;;;;-2.82;84.78;102094.53;6267597;22;45062;-78
2021/12/22 07:00:24;;;;;;;;;36.50;30.25;;;;;-2.82;84.94;102082.53;6249678;22;45331;-75
2021/12/22 07:02:49;;;;;;;;;30.25;27.75;;;;;-2.81;85.49;102088.53;6243041;22;45237;-77
2021/12/22 07:05:15;;;;;;;;;37.75;33.50;;;;;-2.82;85.10;102090.25;6242949;22;45229;-78
2021/12/22 07:07:40;;;;;;;;;35.75;33.50;;;;;-2.81;85.21;102091.97;6242549;22;45338;-76
2021/12/22 07:10:08;;;;;;;;;36.75;34.00;;;;;-2.89;84.98;102081.44;6242638;22;45369;-75
2021/12/22 07:12:35;;;;;;;;;43.00;31.25;;;;;-3.10;85.23;102044.75;6242897;22;45304;-76
2021/12/22 07:15:03;;;;;;;;;35.50;31.50;;;;;-3.05;84.86;102050.94;6242433;22;45252;-75
2021/12/22 07:17:28;;;;;;;;;39.25;30.25;;;;;-2.96;84.86;102070.91;6241495;22;46238;-76
2021/12/22 07:19:54;;;;;;;;;30.25;28.00;;;;;-2.85;85.44;102090.13;6242278;22;45331;-76
2021/12/22 07:22:19;;;;;;;;;42.50;35.75;;;;;-3.03;84.78;102054.41;6243262;22;45323;-78
2021/12/22 07:24:45;;;;;;;;;43.25;38.75;;;;;-2.87;85.03;102082.38;6242939;22;45347;-74
2021/12/22 07:27:10;;;;;;;;;38.00;37.50;;;;;-2.87;85.52;102084.94;6242152;22;46101;-76
2021/12/22 07:29:37;;;;;;;;;41.50;39.25;;;;;-2.87;85.34;102082.38;6242279;22;45360;-77
2021/12/22 07:32:03;;;;;;;;;48.25;38.75;;;;;-2.87;85.17;102078.94;6243036;22;45263;-76
2021/12/22 07:34:43;;;;;;;;;52.25;42.50;;;;;-2.85;85.52;102079.00;6244255;22;45335;-77
2021/12/22 07:37:36;;;;;;;;;42.50;37.00;;;;;-2.92;84.78;102068.50;6248506;22;46399;-77
2021/12/22 07:40:04;;;;;;;;;42.75;39.00;;;;;-2.84;84.89;102078.16;6231347;22;45178;-78
2021/12/22 07:42:29;;;;;;;;;35.50;31.00;;;;;-2.89;85.29;102062.59;6249939;22;45280;-79
2021/12/22 07:44:54;;;;;;;;;39.75;30.25;;;;;-2.81;84.76;102075.69;6245935;22;45541;-79
2021/12/22 07:47:20;;;;;;;;;33.00;29.00;;;;;-2.93;84.93;102055.59;6241940;22;45305;-76
2021/12/22 07:49:45;;;;;;;;;33.00;31.25;;;;;-2.88;84.85;102054.97;6215566;22;45193;-76
2021/12/22 07:52:10;;;;;;;;;37.00;33.00;;;;;-2.73;84.23;102075.16;6243661;22;45343;-78
2021/12/22 07:54:36;;;;;;;;;35.25;28.00;;;;;-2.69;84.20;102078.69;6243966;22;45279;-76
2021/12/22 07:57:01;;;;;;;;;35.75;28.50;;;;;-2.65;84.20;102087.38;6243771;22;45339;-76
2021/12/22 07:59:27;;;;;;;;;30.00;25.50;;;;;-3.33;84.14;101965.22;6243725;22;45391;-76
2021/12/22 08:01:52;;;;;;;;;49.50;46.00;;;;;-2.60;84.38;102084.13;6248472;22;45391;-74
2021/12/22 08:04:17;;;;;;;;;37.50;30.50;;;;;-2.87;83.65;102036.13;6253385;22;45234;-76
2021/12/22 08:06:43;;;;;;;;;26.50;24.50;;;;;-2.53;83.56;102086.09;6246964;22;45359;-76
2021/12/22 08:09:08;;;;;;;;;35.75;35.50;;;;;-2.47;83.88;102080.28;6245790;22;44661;-77
2021/12/22 08:11:34;;;;;;;;;32.50;31.75;;;;;-2.71;83.25;102032.41;6241355;22;45335;-74
2021/12/22 08:13:59;;;;;;;;;41.00;30.75;;;;;-2.35;83.02;102077.25;6247925;22;45208;-73
2021/12/22 08:16:24;;;;;;;;;36.00;32.25;;;;;-2.39;82.70;102063.44;6244505;22;45299;-73
2021/12/22 08:18:50;;;;;;;;;29.00;26.75;;;;;-2.36;83.04;102045.53;6242747;22;45248;-75
2021/12/22 08:21:15;;;;;;;;;37.75;32.50;;;;;-2.66;82.35;101994.03;6243573;22;45303;-76
2021/12/22 08:23:41;;;;;;;;;36.25;30.75;;;;;-2.10;82.61;102071.19;6243020;22;45419;-77
2021/12/22 08:26:07;;;;;;;;;31.75;30.25;;;;;-2.02;81.91;102072.31;6243015;22;45991;-78
2021/12/22 08:28:33;;;;;;;;;38.75;29.00;;;;;-2.34;81.95;102001.91;6243934;22;45391;-80
2021/12/22 08:30:58;;;;;;;;;43.25;32.75;;;;;-2.07;81.48;102044.72;6216399;22;45372;-78
2021/12/22 08:33:26;;;;;;;;;33.75;28.25;;;;;-2.14;81.47;102008.50;6243657;22;45343;-79
2021/12/22 08:38:52;;;;;;;;;32.75;28.75;;;;;-1.75;81.15;102045.69;6243150;22;45386;-74
2021/12/22 08:41:28;;;;;;;;;41.75;32.25;;;;;-2.64;81.08;101892.16;6216018;22;45364;-77
2021/12/22 08:43:56;;;;;;;;;40.00;33.75;;;;;-1.64;80.89;102052.03;6242601;22;45358;-74
2021/12/22 08:46:23;;;;;;;;;43.00;35.25;;;;;-1.60;80.32;102047.84;6245355;22;47287;-74
2021/12/22 08:48:49;;;;;;;;;36.25;29.25;;;;;-1.57;80.53;102038.50;6248425;22;45276;-78
2021/12/22 08:51:14;;;;;;;;;36.00;31.50;;;;;-1.52;80.18;102033.50;6222026;22;45138;-77
2021/12/22 08:53:41;;;;;;;;;37.50;36.00;;;;;-1.46;79.79;102036.22;6243664;22;45336;-76
2021/12/22 08:56:06;;;;;;;;;39.50;33.25;;;;;-1.43;79.68;102043.19;6243398;22;46209;-76
2021/12/22 08:58:33;;;;;;;;;43.25;35.50;;;;;-1.47;79.80;102020.78;6241872;22;45343;-75
2021/12/22 09:00:59;;;;;;;;;39.50;32.25;;;;;-1.31;79.81;102040.97;6243851;22;45337;-76
2021/12/22 09:03:24;;;;;;;;;39.00;36.00;;;;;-1.59;79.40;101991.25;6244651;22;45256;-77
2021/12/22 09:05:50;;;;;;;;;38.25;35.50;;;;;-1.20;78.85;102052.44;6255404;22;45192;-81
2021/12/22 09:08:15;;;;;;;;;40.50;35.25;;;;;-1.17;79.23;102047.38;6236232;22;44714;-79
2021/12/22 09:10:41;;;;;;;;;50.50;40.00;;;;;-1.15;78.59;102037.13;6250746;22;45291;-82
2021/12/22 09:13:06;;;;;;;;;36.75;35.25;;;;;-1.50;78.73;101980.34;6244600;22;45236;-81
2021/12/22 09:15:32;;;;;;;;;36.00;34.25;;;;;-1.12;79.13;102037.16;6216649;22;47213;-79
2021/12/22 09:17:57;;;;;;;;;40.75;35.75;;;;;-1.11;78.57;102031.19;6216216;22;45366;-80
2021/12/22 09:20:23;;;;;;;;;43.25;31.00;;;;;-1.38;78.36;101998.72;6244862;22;45263;-79
2021/12/22 09:22:50;;;;;;;;;45.50;37.00;;;;;-1.08;78.53;102031.28;6244850;22;45357;-82
2021/12/22 09:25:15;;;;;;;;;40.50;33.00;;;;;-1.16;78.49;102018.19;6244155;22;45319;-81
2021/12/22 09:27:41;;;;;;;;;40.00;38.25;;;;;-1.02;78.15;102028.00;6242676;22;45202;-76
2021/12/22 09:30:08;;;;;;;;;41.25;36.00;;;;;-1.00;78.27;102031.50;6243266;22;45284;-78
2021/12/22 09:32:33;;;;;;;;;35.25;33.00;;;;;-0.98;78.47;102032.41;6242746;22;45111;-77
2021/12/22 09:34:59;;;;;;;;;36.00;32.25;;;;;-0.98;77.69;102025.56;6242678;22;45492;-80
2021/12/22 09:37:24;;;;;;;;;43.75;40.50;;;;;-1.06;77.66;102021.03;6242116;22;45274;-80
2021/12/22 09:39:49;;;;;;;;;38.00;35.25;;;;;-1.43;78.07;101965.97;6243094;22;45292;-80
2021/12/22 09:42:16;;;;;;;;;40.75;27.00;;;;;-0.98;77.77;102042.69;6243318;22;45398;-80
2021/12/22 09:44:45;;;;;;;;;40.25;36.00;;;;;-1.10;78.25;102020.09;6243016;22;46156;-80
2021/12/22 09:47:14;;;;;;;;;39.25;35.00;;;;;-0.96;78.13;102043.59;6242634;22;45260;-80
2021/12/22 09:52:16;;;;;;;;;56.75;44.25;;;;;-0.93;78.28;102041.13;6237857;22;45348;-75
2021/12/22 09:54:42;;;;;;;;;44.75;39.25;;;;;-0.92;78.12;102032.56;6241906;22;46139;-75
2021/12/22 09:57:08;;;;;;;;;39.75;33.00;;;;;-0.97;78.26;102026.44;6241558;22;45371;-75
2021/12/22 09:59:33;;;;;;;;;32.25;27.50;;;;;-0.86;77.68;102035.31;6215204;22;45300;-76
2021/12/22 10:01:59;;;;;;;;;48.00;35.75;;;;;-0.81;77.93;102040.59;6215177;22;45368;-74
2021/12/22 10:04:24;;;;;;;;;45.25;39.25;;;;;-0.79;77.73;102034.63;6242603;22;45236;-74
2021/12/22 10:06:50;;;;;;;;;35.75;33.75;;;;;-0.75;77.56;102043.31;6242844;22;45355;-74
2021/12/22 10:09:22;;;;;;;;;44.00;40.75;;;;;-0.70;78.05;102040.84;6215171;22;45372;-74
2021/12/22 10:11:48;;;;;;;;;33.50;28.00;;;;;-0.67;77.61;102028.91;6242024;22;45339;-75
2021/12/22 10:14:22;;;;;;;;;45.25;43.00;;;;;-0.68;77.62;102021.16;6214899;22;46847;-75
2021/12/22 10:16:51;;;;;;;;;44.00;39.50;;;;;-0.72;78.09;102002.16;6242454;22;45263;-74
2021/12/22 10:19:17;;;;;;;;;42.75;38.00;;;;;-0.57;77.55;102022.28;6241978;22;45249;-75
2021/12/22 10:22:08;;;;;;;;;35.25;34.25;;;;;-0.51;77.39;102013.84;6242368;22;45295;-75
2021/12/22 10:24:35;;;;;;;;;50.50;43.25;;;;;-0.49;77.03;102018.19;6209559;22;46261;-74
2021/12/22 10:27:06;;;;;;;;;43.00;37.00;;;;;-0.89;76.72;101939.00;6242648;22;45319;-75
2021/12/22 10:29:33;;;;;;;;;47.00;35.75;;;;;-0.42;76.67;102008.91;6242316;22;45240;-74
2021/12/22 10:32:10;;;;;;;;;44.75;39.75;;;;;-0.39;76.82;102006.41;6242707;22;45863;-74
2021/12/22 10:34:36;;;;;;;;;42.75;35.50;;;;;-0.61;76.73;101962.03;6242491;22;45253;-75
2021/12/22 10:37:02;;;;;;;;;53.25;42.75;;;;;-0.42;76.61;101989.13;6241758;22;45249;-75
2021/12/22 10:39:32;;;;;;;;;41.50;38.50;;;;;-0.33;75.98;101996.22;6241835;22;45233;-75
2021/12/22 10:42:09;;;;;;;;;51.25;43.25;;;;;-0.31;75.96;101993.69;6242477;22;45391;-75
2021/12/22 10:44:41;;;;;;;;;57.75;45.25;;;;;-0.29;76.50;101986.84;6242339;22;46015;-75
2021/12/22 10:47:14;;;;;;;;;49.75;43.00;;;;;-0.27;76.35;101985.16;6241382;22;45367;-74
2021/12/22 10:49:40;;;;;;;;;46.25;40.25;;;;;-0.62;76.26;101924.22;6241334;22;45382;-73
2021/12/22 10:52:05;;;;;;;;;53.25;43.00;;;;;-0.36;75.67;101956.59;6242142;22;45312;-73
2021/12/22 10:54:37;;;;;;;;;49.00;43.00;;;;;-0.22;75.94;101981.84;6242186;22;45441;-75
2021/12/22 10:57:05;;;;;;;;;45.00;41.50;;;;;-0.20;76.10;101975.03;6242190;22;45255;-74
2021/12/22 10:59:49;;;;;;;;;51.75;42.25;;;;;-0.49;75.47;101921.94;6242278;22;45383;-74
2021/12/22 11:02:31;;;;;;;;;57.75;43.50;;;;;-0.16;75.61;101964.78;6242289;22;45312;-74
2021/12/22 11:05:01;;;;;;;;;49.00;43.00;;;;;-0.14;75.32;101965.66;6242254;22;46446;-75
2021/12/22 11:07:28;;;;;;;;;61.00;47.75;;;;;-0.12;75.30;101953.69;6242348;22;45353;-74
2021/12/22 11:09:54;;;;;;;;;52.75;45.00;;;;;-0.11;75.16;101955.44;6242079;22;45397;-74
2021/12/22 11:12:39;;;;;;;;;46.75;43.00;;;;;-0.06;75.67;101954.69;6242300;22;45215;-75
2021/12/22 11:15:22;;;;;;;;;60.00;46.75;;;;;0.01;75.04;101947.94;6243457;22;46202;-75
2021/12/22 11:17:48;;;;;;;;;54.75;45.00;;;;;-0.06;75.08;101928.03;6247483;22;45236;-74
2021/12/22 11:20:13;;;;;;;;;52.25;44.00;;;;;0.15;74.47;101937.91;6247472;22;45268;-74
2021/12/22 11:23:02;;;;;;;;;54.75;42.50;;;;;0.18;74.48;101925.94;6243621;22;45951;-73
2021/12/22 11:25:29;;;;;;;;;49.00;45.25;;;;;0.33;74.49;101929.66;6214774;22;46226;-75
2021/12/22 11:27:55;;;;;;;;;41.25;39.50;;;;;-0.06;74.05;101848.03;6242517;22;45407;-76
2021/12/22 11:30:23;;;;;;;;;49.25;43.25;;;;;0.48;73.68;101921.34;6241982;22;45296;-77